sensor_id;sensor_type;location;lat;lon;timestamp;temperature;humidity
50758;DHT22;36732;47.980;11.652;2023-07-28T00:02:10;20.30;56.10
50758;DHT22;36732;47.980;11.652;2023-07-28T00:04:36;20.30;56.10
50758;DHT22;36732;47.980;11.652;2023-07-28T00:07:03;20.20;56.00
50758;DHT22;36732;47.980;11.652;2023-07-28T00:09:29;20.20;56.00
50758;DHT22;36732;47.980;11.652;2023-07-28T00:11:59;20.20;56.00
50758;DHT22;36732;47.980;11.652;2023-07-28T00:14:26;20.20;56.00
50758;DHT22;36732;47.980;11.652;2023-07-28T00:16:53;20.20;56.10
50758;DHT22;36732;47.980;11.652;2023-07-28T00:19:22;20.20;56.00
50758;DHT22;36732;47.980;11.652;2023-07-28T00:21:48;20.10;56.00
50758;DHT22;36732;47.980;11.652;2023-07-28T00:24:15;20.10;56.10
50758;DHT22;36732;47.980;11.652;2023-07-28T00:26:41;20.10;56.10
50758;DHT22;36732;47.980;11.652;2023-07-28T00:29:07;20.10;56.10
50758;DHT22;36732;47.980;11.652;2023-07-28T00:31:33;20.00;56.10
50758;DHT22;36732;47.980;11.652;2023-07-28T00:33:59;20.00;56.20
50758;DHT22;36732;47.980;11.652;2023-07-28T00:36:26;20.00;56.20
50758;DHT22;36732;47.980;11.652;2023-07-28T00:38:52;20.00;56.30
50758;DHT22;36732;47.980;11.652;2023-07-28T00:41:17;20.00;56.30
50758;DHT22;36732;47.980;11.652;2023-07-28T00:43:43;20.00;56.40
50758;DHT22;36732;47.980;11.652;2023-07-28T00:46:10;19.90;56.30
50758;DHT22;36732;47.980;11.652;2023-07-28T00:48:36;19.90;56.50
50758;DHT22;36732;47.980;11.652;2023-07-28T00:51:02;19.90;56.60
50758;DHT22;36732;47.980;11.652;2023-07-28T00:53:29;19.90;56.60
50758;DHT22;36732;47.980;11.652;2023-07-28T00:55:55;19.90;56.60
50758;DHT22;36732;47.980;11.652;2023-07-28T00:58:21;19.90;56.70
50758;DHT22;36732;47.980;11.652;2023-07-28T01:00:47;19.90;56.80
50758;DHT22;36732;47.980;11.652;2023-07-28T01:03:14;19.90;56.80
50758;DHT22;36732;47.980;11.652;2023-07-28T01:09:09;19.90;57.10
50758;DHT22;36732;47.980;11.652;2023-07-28T01:11:57;19.90;57.10
50758;DHT22;36732;47.980;11.652;2023-07-28T01:14:24;19.90;57.10
50758;DHT22;36732;47.980;11.652;2023-07-28T01:16:50;19.90;56.90
50758;DHT22;36732;47.980;11.652;2023-07-28T01:19:21;19.90;56.90
50758;DHT22;36732;47.980;11.652;2023-07-28T01:24:51;19.80;57.10
50758;DHT22;36732;47.980;11.652;2023-07-28T01:27:22;19.90;57.20
50758;DHT22;36732;47.980;11.652;2023-07-28T01:29:48;19.80;57.00
50758;DHT22;36732;47.980;11.652;2023-07-28T01:32:14;19.80;57.00
50758;DHT22;36732;47.980;11.652;2023-07-28T01:34:40;19.80;56.90
50758;DHT22;36732;47.980;11.652;2023-07-28T01:37:06;19.80;56.90
50758;DHT22;36732;47.980;11.652;2023-07-28T01:39:31;19.80;56.90
50758;DHT22;36732;47.980;11.652;2023-07-28T01:41:57;19.80;56.80
50758;DHT22;36732;47.980;11.652;2023-07-28T01:44:23;19.80;56.80
50758;DHT22;36732;47.980;11.652;2023-07-28T01:46:49;19.80;56.70
50758;DHT22;36732;47.980;11.652;2023-07-28T01:49:14;19.80;56.70
50758;DHT22;36732;47.980;11.652;2023-07-28T01:51:40;19.80;56.70
50758;DHT22;36732;47.980;11.652;2023-07-28T01:54:06;19.80;56.60
50758;DHT22;36732;47.980;11.652;2023-07-28T01:56:32;19.80;56.50
50758;DHT22;36732;47.980;11.652;2023-07-28T01:58:57;19.80;56.50
50758;DHT22;36732;47.980;11.652;2023-07-28T02:01:23;19.70;57.10
50758;DHT22;36732;47.980;11.652;2023-07-28T02:03:49;19.70;56.40
50758;DHT22;36732;47.980;11.652;2023-07-28T02:06:14;19.70;56.30
50758;DHT22;36732;47.980;11.652;2023-07-28T02:08:40;19.70;56.30
50758;DHT22;36732;47.980;11.652;2023-07-28T02:11:06;19.70;56.30
50758;DHT22;36732;47.980;11.652;2023-07-28T02:13:31;19.70;56.90
50758;DHT22;36732;47.980;11.652;2023-07-28T02:15:57;19.70;56.20
50758;DHT22;36732;47.980;11.652;2023-07-28T02:18:23;19.70;56.20
50758;DHT22;36732;47.980;11.652;2023-07-28T02:20:48;19.70;56.10
50758;DHT22;36732;47.980;11.652;2023-07-28T02:23:14;19.60;56.10
50758;DHT22;36732;47.980;11.652;2023-07-28T02:25:40;19.70;56.10
50758;DHT22;36732;47.980;11.652;2023-07-28T02:28:09;19.70;56.00
50758;DHT22;36732;47.980;11.652;2023-07-28T02:30:35;19.70;56.00
50758;DHT22;36732;47.980;11.652;2023-07-28T02:33:01;19.60;56.00
50758;DHT22;36732;47.980;11.652;2023-07-28T02:35:27;19.60;55.90
50758;DHT22;36732;47.980;11.652;2023-07-28T02:37:52;19.60;55.90
50758;DHT22;36732;47.980;11.652;2023-07-28T02:40:18;19.60;55.90
50758;DHT22;36732;47.980;11.652;2023-07-28T02:42:44;19.60;55.90
50758;DHT22;36732;47.980;11.652;2023-07-28T02:45:10;19.60;56.00
50758;DHT22;36732;47.980;11.652;2023-07-28T02:47:35;19.60;56.00
50758;DHT22;36732;47.980;11.652;2023-07-28T02:50:01;19.60;56.00
50758;DHT22;36732;47.980;11.652;2023-07-28T02:52:28;19.60;55.90
50758;DHT22;36732;47.980;11.652;2023-07-28T02:54:55;19.60;56.00
50758;DHT22;36732;47.980;11.652;2023-07-28T02:57:21;19.50;55.90
50758;DHT22;36732;47.980;11.652;2023-07-28T02:59:46;19.50;55.80
50758;DHT22;36732;47.980;11.652;2023-07-28T03:02:12;19.50;55.90
50758;DHT22;36732;47.980;11.652;2023-07-28T03:04:38;19.50;55.80
50758;DHT22;36732;47.980;11.652;2023-07-28T03:07:04;19.50;55.90
50758;DHT22;36732;47.980;11.652;2023-07-28T03:09:29;19.40;55.90
50758;DHT22;36732;47.980;11.652;2023-07-28T03:11:55;19.50;55.90
50758;DHT22;36732;47.980;11.652;2023-07-28T03:14:21;19.40;55.90
50758;DHT22;36732;47.980;11.652;2023-07-28T03:16:46;19.40;55.80
50758;DHT22;36732;47.980;11.652;2023-07-28T03:19:12;19.40;55.90
50758;DHT22;36732;47.980;11.652;2023-07-28T03:21:38;19.40;55.90
50758;DHT22;36732;47.980;11.652;2023-07-28T03:24:04;19.40;56.00
50758;DHT22;36732;47.980;11.652;2023-07-28T03:26:30;19.40;56.00
50758;DHT22;36732;47.980;11.652;2023-07-28T03:28:55;19.40;56.00
50758;DHT22;36732;47.980;11.652;2023-07-28T03:31:22;19.30;56.00
50758;DHT22;36732;47.980;11.652;2023-07-28T03:33:47;19.30;56.00
50758;DHT22;36732;47.980;11.652;2023-07-28T03:36:13;19.30;56.00
50758;DHT22;36732;47.980;11.652;2023-07-28T03:38:39;19.30;56.00
50758;DHT22;36732;47.980;11.652;2023-07-28T03:41:04;19.30;56.10
50758;DHT22;36732;47.980;11.652;2023-07-28T03:43:32;19.30;56.10
50758;DHT22;36732;47.980;11.652;2023-07-28T03:45:58;19.30;56.20
50758;DHT22;36732;47.980;11.652;2023-07-28T03:48:23;19.30;56.20
50758;DHT22;36732;47.980;11.652;2023-07-28T03:50:49;19.20;56.20
50758;DHT22;36732;47.980;11.652;2023-07-28T03:53:15;19.20;56.40
50758;DHT22;36732;47.980;11.652;2023-07-28T03:55:40;19.20;56.40
50758;DHT22;36732;47.980;11.652;2023-07-28T03:58:06;19.20;56.60
50758;DHT22;36732;47.980;11.652;2023-07-28T04:00:32;19.20;56.70
50758;DHT22;36732;47.980;11.652;2023-07-28T04:02:58;19.20;56.80
50758;DHT22;36732;47.980;11.652;2023-07-28T04:05:24;19.20;56.80
50758;DHT22;36732;47.980;11.652;2023-07-28T04:07:49;19.20;56.90
50758;DHT22;36732;47.980;11.652;2023-07-28T04:10:15;19.20;57.00
50758;DHT22;36732;47.980;11.652;2023-07-28T04:12:41;19.20;57.00
50758;DHT22;36732;47.980;11.652;2023-07-28T04:15:07;19.20;57.10
50758;DHT22;36732;47.980;11.652;2023-07-28T04:17:33;19.20;57.10
50758;DHT22;36732;47.980;11.652;2023-07-28T04:19:59;19.20;57.10
50758;DHT22;36732;47.980;11.652;2023-07-28T04:22:25;19.20;57.10
50758;DHT22;36732;47.980;11.652;2023-07-28T04:24:50;19.20;57.20
50758;DHT22;36732;47.980;11.652;2023-07-28T04:27:16;19.20;57.20
50758;DHT22;36732;47.980;11.652;2023-07-28T04:29:42;19.20;57.30
50758;DHT22;36732;47.980;11.652;2023-07-28T04:32:08;19.20;57.30
50758;DHT22;36732;47.980;11.652;2023-07-28T04:34:34;19.20;57.40
50758;DHT22;36732;47.980;11.652;2023-07-28T04:36:59;19.20;57.50
50758;DHT22;36732;47.980;11.652;2023-07-28T04:39:25;19.20;57.40
50758;DHT22;36732;47.980;11.652;2023-07-28T04:41:51;19.30;57.60
50758;DHT22;36732;47.980;11.652;2023-07-28T04:44:17;19.30;57.60
50758;DHT22;36732;47.980;11.652;2023-07-28T04:46:43;19.30;57.70
50758;DHT22;36732;47.980;11.652;2023-07-28T04:49:09;19.30;57.70
50758;DHT22;36732;47.980;11.652;2023-07-28T04:51:35;19.30;57.70
50758;DHT22;36732;47.980;11.652;2023-07-28T04:54:00;19.30;57.80
50758;DHT22;36732;47.980;11.652;2023-07-28T04:56:26;19.30;58.50
50758;DHT22;36732;47.980;11.652;2023-07-28T04:58:52;19.30;57.90
50758;DHT22;36732;47.980;11.652;2023-07-28T05:01:17;19.30;58.10
50758;DHT22;36732;47.980;11.652;2023-07-28T05:03:43;19.40;58.50
50758;DHT22;36732;47.980;11.652;2023-07-28T05:06:09;19.40;58.70
50758;DHT22;36732;47.980;11.652;2023-07-28T05:08:34;19.40;58.80
50758;DHT22;36732;47.980;11.652;2023-07-28T05:11:01;19.40;58.80
50758;DHT22;36732;47.980;11.652;2023-07-28T05:13:27;19.40;59.30
50758;DHT22;36732;47.980;11.652;2023-07-28T05:15:54;19.40;59.70
50758;DHT22;36732;47.980;11.652;2023-07-28T05:18:19;19.40;60.00
50758;DHT22;36732;47.980;11.652;2023-07-28T05:20:45;19.40;60.00
50758;DHT22;36732;47.980;11.652;2023-07-28T05:23:11;19.40;60.20
50758;DHT22;36732;47.980;11.652;2023-07-28T05:25:37;19.40;60.40
50758;DHT22;36732;47.980;11.652;2023-07-28T05:28:02;19.40;60.70
50758;DHT22;36732;47.980;11.652;2023-07-28T05:30:28;19.40;60.90
50758;DHT22;36732;47.980;11.652;2023-07-28T05:32:54;19.50;61.10
50758;DHT22;36732;47.980;11.652;2023-07-28T05:35:20;19.50;61.10
50758;DHT22;36732;47.980;11.652;2023-07-28T05:37:46;19.50;61.20
50758;DHT22;36732;47.980;11.652;2023-07-28T05:40:12;19.50;61.20
50758;DHT22;36732;47.980;11.652;2023-07-28T05:42:38;19.50;61.40
50758;DHT22;36732;47.980;11.652;2023-07-28T05:45:04;19.50;61.50
50758;DHT22;36732;47.980;11.652;2023-07-28T05:47:30;19.50;61.70
50758;DHT22;36732;47.980;11.652;2023-07-28T05:49:56;19.50;61.90
50758;DHT22;36732;47.980;11.652;2023-07-28T05:52:21;19.60;62.10
50758;DHT22;36732;47.980;11.652;2023-07-28T05:54:50;19.60;62.50
50758;DHT22;36732;47.980;11.652;2023-07-28T05:57:16;19.60;62.50
50758;DHT22;36732;47.980;11.652;2023-07-28T05:59:42;19.60;62.90
50758;DHT22;36732;47.980;11.652;2023-07-28T06:02:07;19.70;63.20
50758;DHT22;36732;47.980;11.652;2023-07-28T06:04:33;19.60;63.10
50758;DHT22;36732;47.980;11.652;2023-07-28T06:06:59;19.70;63.50
50758;DHT22;36732;47.980;11.652;2023-07-28T06:09:24;19.70;63.50
50758;DHT22;36732;47.980;11.652;2023-07-28T06:11:50;19.80;63.40
50758;DHT22;36732;47.980;11.652;2023-07-28T06:14:16;19.80;63.50
50758;DHT22;36732;47.980;11.652;2023-07-28T06:16:42;19.90;63.30
50758;DHT22;36732;47.980;11.652;2023-07-28T06:19:07;19.90;63.10
50758;DHT22;36732;47.980;11.652;2023-07-28T06:21:33;19.90;63.00
50758;DHT22;36732;47.980;11.652;2023-07-28T06:23:59;20.00;62.90
50758;DHT22;36732;47.980;11.652;2023-07-28T06:26:25;20.00;62.90
50758;DHT22;36732;47.980;11.652;2023-07-28T06:28:51;20.00;62.80
50758;DHT22;36732;47.980;11.652;2023-07-28T06:31:16;20.10;62.70
50758;DHT22;36732;47.980;11.652;2023-07-28T06:33:42;20.10;62.80
50758;DHT22;36732;47.980;11.652;2023-07-28T06:36:08;20.20;62.90
50758;DHT22;36732;47.980;11.652;2023-07-28T06:38:34;20.20;63.00
50758;DHT22;36732;47.980;11.652;2023-07-28T06:40:59;20.30;63.10
50758;DHT22;36732;47.980;11.652;2023-07-28T06:43:25;20.30;63.20
50758;DHT22;36732;47.980;11.652;2023-07-28T06:45:52;20.30;63.10
50758;DHT22;36732;47.980;11.652;2023-07-28T06:48:18;20.40;63.10
50758;DHT22;36732;47.980;11.652;2023-07-28T06:50:44;20.50;63.10
50758;DHT22;36732;47.980;11.652;2023-07-28T06:53:10;20.60;63.10
50758;DHT22;36732;47.980;11.652;2023-07-28T06:55:35;20.60;63.00
50758;DHT22;36732;47.980;11.652;2023-07-28T06:58:04;20.60;62.90
50758;DHT22;36732;47.980;11.652;2023-07-28T07:00:31;20.70;62.80
50758;DHT22;36732;47.980;11.652;2023-07-28T07:02:57;20.80;62.60
50758;DHT22;36732;47.980;11.652;2023-07-28T07:05:22;20.80;62.30
50758;DHT22;36732;47.980;11.652;2023-07-28T07:07:49;20.90;62.30
50758;DHT22;36732;47.980;11.652;2023-07-28T07:10:15;20.90;62.10
50758;DHT22;36732;47.980;11.652;2023-07-28T07:12:40;20.90;62.00
50758;DHT22;36732;47.980;11.652;2023-07-28T07:15:07;20.90;61.80
50758;DHT22;36732;47.980;11.652;2023-07-28T07:17:33;21.00;61.90
50758;DHT22;36732;47.980;11.652;2023-07-28T07:19:59;21.00;61.80
50758;DHT22;36732;47.980;11.652;2023-07-28T07:22:24;21.00;61.80
50758;DHT22;36732;47.980;11.652;2023-07-28T07:24:50;21.10;61.80
50758;DHT22;36732;47.980;11.652;2023-07-28T07:27:16;21.10;61.80
50758;DHT22;36732;47.980;11.652;2023-07-28T07:29:42;21.10;61.70
50758;DHT22;36732;47.980;11.652;2023-07-28T07:32:07;21.10;61.70
50758;DHT22;36732;47.980;11.652;2023-07-28T07:34:35;21.20;61.80
50758;DHT22;36732;47.980;11.652;2023-07-28T07:37:02;21.30;61.80
50758;DHT22;36732;47.980;11.652;2023-07-28T07:39:28;21.30;61.70
50758;DHT22;36732;47.980;11.652;2023-07-28T07:41:54;21.30;61.70
50758;DHT22;36732;47.980;11.652;2023-07-28T07:44:20;21.30;61.60
50758;DHT22;36732;47.980;11.652;2023-07-28T07:46:46;21.40;61.70
50758;DHT22;36732;47.980;11.652;2023-07-28T07:49:11;21.40;61.50
50758;DHT22;36732;47.980;11.652;2023-07-28T07:51:37;21.40;61.40
50758;DHT22;36732;47.980;11.652;2023-07-28T07:54:03;21.40;61.30
50758;DHT22;36732;47.980;11.652;2023-07-28T07:56:29;21.40;61.20
50758;DHT22;36732;47.980;11.652;2023-07-28T07:58:54;21.40;61.30
50758;DHT22;36732;47.980;11.652;2023-07-28T08:01:20;21.50;61.40
50758;DHT22;36732;47.980;11.652;2023-07-28T08:03:46;21.50;61.60
50758;DHT22;36732;47.980;11.652;2023-07-28T08:06:12;21.50;61.80
50758;DHT22;36732;47.980;11.652;2023-07-28T08:08:38;21.50;61.90
50758;DHT22;36732;47.980;11.652;2023-07-28T08:11:04;21.50;61.80
50758;DHT22;36732;47.980;11.652;2023-07-28T08:13:29;21.60;61.80
50758;DHT22;36732;47.980;11.652;2023-07-28T08:15:55;21.60;61.80
50758;DHT22;36732;47.980;11.652;2023-07-28T08:18:21;21.60;61.90
50758;DHT22;36732;47.980;11.652;2023-07-28T08:20:48;21.70;62.00
50758;DHT22;36732;47.980;11.652;2023-07-28T08:23:13;21.70;62.00
50758;DHT22;36732;47.980;11.652;2023-07-28T08:25:39;21.80;62.00
50758;DHT22;36732;47.980;11.652;2023-07-28T08:28:05;21.80;62.00
50758;DHT22;36732;47.980;11.652;2023-07-28T08:30:31;21.80;62.20
50758;DHT22;36732;47.980;11.652;2023-07-28T08:32:57;21.90;62.00
50758;DHT22;36732;47.980;11.652;2023-07-28T08:35:23;21.90;62.00
50758;DHT22;36732;47.980;11.652;2023-07-28T08:37:49;21.90;62.00
50758;DHT22;36732;47.980;11.652;2023-07-28T08:40:15;22.00;62.00
50758;DHT22;36732;47.980;11.652;2023-07-28T08:42:40;22.00;62.10
50758;DHT22;36732;47.980;11.652;2023-07-28T08:45:07;22.00;62.30
50758;DHT22;36732;47.980;11.652;2023-07-28T08:47:34;22.00;62.20
50758;DHT22;36732;47.980;11.652;2023-07-28T08:50:01;22.10;62.20
50758;DHT22;36732;47.980;11.652;2023-07-28T08:52:27;22.20;62.00
50758;DHT22;36732;47.980;11.652;2023-07-28T08:54:53;22.20;62.10
50758;DHT22;36732;47.980;11.652;2023-07-28T08:57:19;22.20;62.00
50758;DHT22;36732;47.980;11.652;2023-07-28T08:59:46;22.20;62.10
50758;DHT22;36732;47.980;11.652;2023-07-28T09:02:16;22.30;62.00
50758;DHT22;36732;47.980;11.652;2023-07-28T09:04:45;22.30;61.80
50758;DHT22;36732;47.980;11.652;2023-07-28T09:07:13;22.30;61.90
50758;DHT22;36732;47.980;11.652;2023-07-28T09:09:39;22.30;61.50
50758;DHT22;36732;47.980;11.652;2023-07-28T09:12:08;22.40;61.30
50758;DHT22;36732;47.980;11.652;2023-07-28T09:14:38;22.40;61.10
50758;DHT22;36732;47.980;11.652;2023-07-28T09:17:11;22.40;60.90
50758;DHT22;36732;47.980;11.652;2023-07-28T09:19:54;22.40;60.90
50758;DHT22;36732;47.980;11.652;2023-07-28T09:22:20;22.40;61.00
50758;DHT22;36732;47.980;11.652;2023-07-28T09:24:47;22.50;61.10
50758;DHT22;36732;47.980;11.652;2023-07-28T09:27:25;22.50;61.20
50758;DHT22;36732;47.980;11.652;2023-07-28T09:29:52;22.50;61.10
50758;DHT22;36732;47.980;11.652;2023-07-28T09:32:31;22.50;60.90
50758;DHT22;36732;47.980;11.652;2023-07-28T09:35:09;22.50;60.70
50758;DHT22;36732;47.980;11.652;2023-07-28T09:37:41;22.50;60.40
50758;DHT22;36732;47.980;11.652;2023-07-28T09:40:13;22.50;60.30
50758;DHT22;36732;47.980;11.652;2023-07-28T09:42:42;22.50;60.10
50758;DHT22;36732;47.980;11.652;2023-07-28T09:45:10;22.60;60.20
50758;DHT22;36732;47.980;11.652;2023-07-28T09:47:37;22.60;60.10
50758;DHT22;36732;47.980;11.652;2023-07-28T09:50:08;22.60;60.00
50758;DHT22;36732;47.980;11.652;2023-07-28T09:52:37;22.60;59.90
50758;DHT22;36732;47.980;11.652;2023-07-28T09:55:08;22.60;59.80
50758;DHT22;36732;47.980;11.652;2023-07-28T09:57:48;22.60;59.90
50758;DHT22;36732;47.980;11.652;2023-07-28T10:00:20;22.60;59.70
50758;DHT22;36732;47.980;11.652;2023-07-28T10:02:48;22.60;59.70
50758;DHT22;36732;47.980;11.652;2023-07-28T10:05:14;22.50;59.70
50758;DHT22;36732;47.980;11.652;2023-07-28T10:07:42;22.60;59.70
50758;DHT22;36732;47.980;11.652;2023-07-28T10:10:11;22.50;59.60
50758;DHT22;36732;47.980;11.652;2023-07-28T10:15:08;22.50;59.60
50758;DHT22;36732;47.980;11.652;2023-07-28T10:17:37;22.50;59.80
50758;DHT22;36732;47.980;11.652;2023-07-28T10:20:09;22.50;59.80
50758;DHT22;36732;47.980;11.652;2023-07-28T10:23:14;22.50;59.80
50758;DHT22;36732;47.980;11.652;2023-07-28T10:25:47;22.50;59.80
50758;DHT22;36732;47.980;11.652;2023-07-28T10:28:32;22.50;59.80
50758;DHT22;36732;47.980;11.652;2023-07-28T10:31:04;22.50;60.40
50758;DHT22;36732;47.980;11.652;2023-07-28T10:38:38;22.50;59.70
50758;DHT22;36732;47.980;11.652;2023-07-28T10:41:17;22.50;59.80
50758;DHT22;36732;47.980;11.652;2023-07-28T10:43:45;22.50;59.80
50758;DHT22;36732;47.980;11.652;2023-07-28T10:46:15;22.50;59.80
50758;DHT22;36732;47.980;11.652;2023-07-28T10:48:46;22.50;59.70
50758;DHT22;36732;47.980;11.652;2023-07-28T10:51:27;22.50;59.80
50758;DHT22;36732;47.980;11.652;2023-07-28T10:53:58;22.50;59.90
50758;DHT22;36732;47.980;11.652;2023-07-28T10:56:25;22.50;59.90
50758;DHT22;36732;47.980;11.652;2023-07-28T10:58:58;22.50;59.80
50758;DHT22;36732;47.980;11.652;2023-07-28T11:01:31;22.50;59.80
50758;DHT22;36732;47.980;11.652;2023-07-28T11:04:16;22.50;59.70
50758;DHT22;36732;47.980;11.652;2023-07-28T11:06:52;22.50;59.70
50758;DHT22;36732;47.980;11.652;2023-07-28T11:09:19;22.50;59.70
50758;DHT22;36732;47.980;11.652;2023-07-28T11:11:49;22.50;59.70
50758;DHT22;36732;47.980;11.652;2023-07-28T11:14:17;22.50;59.60
50758;DHT22;36732;47.980;11.652;2023-07-28T11:16:43;22.50;59.60
50758;DHT22;36732;47.980;11.652;2023-07-28T11:19:15;22.50;59.50
50758;DHT22;36732;47.980;11.652;2023-07-28T11:21:43;22.50;59.50
50758;DHT22;36732;47.980;11.652;2023-07-28T11:24:10;22.50;59.50
50758;DHT22;36732;47.980;11.652;2023-07-28T11:26:37;22.50;59.50
50758;DHT22;36732;47.980;11.652;2023-07-28T11:29:04;22.60;59.50
50758;DHT22;36732;47.980;11.652;2023-07-28T11:31:30;22.60;59.40
50758;DHT22;36732;47.980;11.652;2023-07-28T11:33:56;22.60;59.40
50758;DHT22;36732;47.980;11.652;2023-07-28T11:36:26;22.60;59.50
50758;DHT22;36732;47.980;11.652;2023-07-28T11:38:54;22.60;59.50
50758;DHT22;36732;47.980;11.652;2023-07-28T11:41:21;22.60;59.60
50758;DHT22;36732;47.980;11.652;2023-07-28T11:43:51;22.60;59.40
50758;DHT22;36732;47.980;11.652;2023-07-28T11:46:36;22.60;59.30
50758;DHT22;36732;47.980;11.652;2023-07-28T11:49:15;22.60;59.20
50758;DHT22;36732;47.980;11.652;2023-07-28T11:51:49;22.70;59.30
50758;DHT22;36732;47.980;11.652;2023-07-28T11:54:18;22.70;59.10
50758;DHT22;36732;47.980;11.652;2023-07-28T11:56:49;22.70;59.20
50758;DHT22;36732;47.980;11.652;2023-07-28T11:59:17;22.70;59.10
50758;DHT22;36732;47.980;11.652;2023-07-28T12:07:13;22.80;59.20
50758;DHT22;36732;47.980;11.652;2023-07-28T12:12:12;22.80;58.70
50758;DHT22;36732;47.980;11.652;2023-07-28T12:14:38;22.80;59.30
50758;DHT22;36732;47.980;11.652;2023-07-28T12:17:16;22.80;58.50
50758;DHT22;36732;47.980;11.652;2023-07-28T12:22:43;22.90;58.00
50758;DHT22;36732;47.980;11.652;2023-07-28T12:25:10;22.90;58.10
50758;DHT22;36732;47.980;11.652;2023-07-28T12:27:37;22.90;58.20
50758;DHT22;36732;47.980;11.652;2023-07-28T12:30:03;23.00;58.20
50758;DHT22;36732;47.980;11.652;2023-07-28T12:32:30;23.00;58.10
50758;DHT22;36732;47.980;11.652;2023-07-28T12:34:55;23.00;58.20
50758;DHT22;36732;47.980;11.652;2023-07-28T12:37:21;23.00;58.20
50758;DHT22;36732;47.980;11.652;2023-07-28T12:39:47;23.00;58.20
50758;DHT22;36732;47.980;11.652;2023-07-28T12:42:14;23.10;58.20
50758;DHT22;36732;47.980;11.652;2023-07-28T12:44:42;23.10;58.30
50758;DHT22;36732;47.980;11.652;2023-07-28T12:47:08;23.10;58.30
50758;DHT22;36732;47.980;11.652;2023-07-28T12:49:34;23.10;58.10
50758;DHT22;36732;47.980;11.652;2023-07-28T12:52:04;23.10;58.00
50758;DHT22;36732;47.980;11.652;2023-07-28T12:54:34;23.20;57.80
50758;DHT22;36732;47.980;11.652;2023-07-28T12:57:00;23.20;57.90
50758;DHT22;36732;47.980;11.652;2023-07-28T12:59:27;23.20;57.30
50758;DHT22;36732;47.980;11.652;2023-07-28T13:01:54;23.20;57.00
50758;DHT22;36732;47.980;11.652;2023-07-28T13:04:20;23.30;57.00
50758;DHT22;36732;47.980;11.652;2023-07-28T13:06:46;23.30;57.00
50758;DHT22;36732;47.980;11.652;2023-07-28T13:09:12;23.40;56.90
50758;DHT22;36732;47.980;11.652;2023-07-28T13:11:38;23.40;56.60
50758;DHT22;36732;47.980;11.652;2023-07-28T13:14:04;23.40;56.50
50758;DHT22;36732;47.980;11.652;2023-07-28T13:16:29;23.40;56.40
50758;DHT22;36732;47.980;11.652;2023-07-28T13:18:56;23.40;56.20
50758;DHT22;36732;47.980;11.652;2023-07-28T13:21:23;23.50;56.10
50758;DHT22;36732;47.980;11.652;2023-07-28T13:23:49;23.50;55.90
50758;DHT22;36732;47.980;11.652;2023-07-28T13:26:14;23.50;55.80
50758;DHT22;36732;47.980;11.652;2023-07-28T13:28:40;23.50;55.80
50758;DHT22;36732;47.980;11.652;2023-07-28T13:31:15;23.50;55.80
50758;DHT22;36732;47.980;11.652;2023-07-28T13:33:42;23.50;55.70
50758;DHT22;36732;47.980;11.652;2023-07-28T13:36:08;23.50;55.70
50758;DHT22;36732;47.980;11.652;2023-07-28T13:38:34;23.50;55.50
50758;DHT22;36732;47.980;11.652;2023-07-28T13:41:01;23.60;55.60
50758;DHT22;36732;47.980;11.652;2023-07-28T13:43:29;23.50;55.50
50758;DHT22;36732;47.980;11.652;2023-07-28T13:45:55;23.60;55.50
50758;DHT22;36732;47.980;11.652;2023-07-28T13:48:21;23.50;55.40
50758;DHT22;36732;47.980;11.652;2023-07-28T13:50:46;23.50;55.40
50758;DHT22;36732;47.980;11.652;2023-07-28T13:53:12;23.50;55.30
50758;DHT22;36732;47.980;11.652;2023-07-28T13:55:38;23.50;55.20
50758;DHT22;36732;47.980;11.652;2023-07-28T13:58:04;23.50;55.30
50758;DHT22;36732;47.980;11.652;2023-07-28T14:00:32;23.50;55.50
50758;DHT22;36732;47.980;11.652;2023-07-28T14:02:57;23.50;55.50
50758;DHT22;36732;47.980;11.652;2023-07-28T14:05:23;23.50;55.70
50758;DHT22;36732;47.980;11.652;2023-07-28T14:07:49;23.50;55.90
50758;DHT22;36732;47.980;11.652;2023-07-28T14:10:14;23.50;56.20
50758;DHT22;36732;47.980;11.652;2023-07-28T14:12:40;23.50;56.30
50758;DHT22;36732;47.980;11.652;2023-07-28T14:15:07;23.50;56.50
50758;DHT22;36732;47.980;11.652;2023-07-28T14:17:33;23.40;56.70
50758;DHT22;36732;47.980;11.652;2023-07-28T14:19:59;23.40;56.80
50758;DHT22;36732;47.980;11.652;2023-07-28T14:22:24;23.40;56.90
50758;DHT22;36732;47.980;11.652;2023-07-28T14:24:50;23.40;56.90
50758;DHT22;36732;47.980;11.652;2023-07-28T14:27:16;23.40;57.20
50758;DHT22;36732;47.980;11.652;2023-07-28T14:29:42;23.30;57.10
50758;DHT22;36732;47.980;11.652;2023-07-28T14:32:08;23.30;57.10
50758;DHT22;36732;47.980;11.652;2023-07-28T14:34:34;23.30;57.20
50758;DHT22;36732;47.980;11.652;2023-07-28T14:37:04;23.30;57.30
50758;DHT22;36732;47.980;11.652;2023-07-28T14:39:33;23.30;57.50
50758;DHT22;36732;47.980;11.652;2023-07-28T14:41:59;23.30;57.60
50758;DHT22;36732;47.980;11.652;2023-07-28T14:44:25;23.20;57.70
50758;DHT22;36732;47.980;11.652;2023-07-28T14:46:51;23.20;57.80
50758;DHT22;36732;47.980;11.652;2023-07-28T14:49:16;23.20;57.90
50758;DHT22;36732;47.980;11.652;2023-07-28T14:51:42;23.20;58.00
50758;DHT22;36732;47.980;11.652;2023-07-28T14:54:08;23.20;58.10
50758;DHT22;36732;47.980;11.652;2023-07-28T14:56:34;23.20;58.10
50758;DHT22;36732;47.980;11.652;2023-07-28T14:59:00;23.20;58.20
50758;DHT22;36732;47.980;11.652;2023-07-28T15:01:29;23.20;58.20
50758;DHT22;36732;47.980;11.652;2023-07-28T15:03:55;23.20;58.20
50758;DHT22;36732;47.980;11.652;2023-07-28T15:06:21;23.20;58.30
50758;DHT22;36732;47.980;11.652;2023-07-28T15:08:47;23.30;58.30
50758;DHT22;36732;47.980;11.652;2023-07-28T15:11:13;23.30;58.30
50758;DHT22;36732;47.980;11.652;2023-07-28T15:13:39;23.30;58.20
50758;DHT22;36732;47.980;11.652;2023-07-28T15:16:05;23.30;58.10
50758;DHT22;36732;47.980;11.652;2023-07-28T15:18:31;23.30;58.10
50758;DHT22;36732;47.980;11.652;2023-07-28T15:20:57;23.30;57.90
50758;DHT22;36732;47.980;11.652;2023-07-28T15:23:25;23.30;57.90
50758;DHT22;36732;47.980;11.652;2023-07-28T15:25:52;23.40;57.80
50758;DHT22;36732;47.980;11.652;2023-07-28T15:28:18;23.40;57.90
50758;DHT22;36732;47.980;11.652;2023-07-28T15:30:44;23.40;57.90
50758;DHT22;36732;47.980;11.652;2023-07-28T15:33:14;23.50;58.00
50758;DHT22;36732;47.980;11.652;2023-07-28T15:35:40;23.50;58.00
50758;DHT22;36732;47.980;11.652;2023-07-28T15:38:07;23.50;57.90
50758;DHT22;36732;47.980;11.652;2023-07-28T15:40:32;23.50;57.50